Time;durP1;ratioP1;P1;durP2;ratioP2;P2;SDS_P1;SDS_P2;PMS_P1;PMS_P2;Temp;Humidity;BMP_temperature;BMP_pressure;BME280_temperature;BME280_humidity;BME280_pressure;Samples;Min_cycle;Max_cycle;Signal;HPM_P1;HPM_P2
2022/03/31 00:01:09;;;;;;;5.15;1.77;;;18.90;77.50;;;;;;4944572;28;97385;-67
2022/03/31 00:03:41;;;;;;;4.85;1.85;;;18.90;77.40;;;;;;4949611;28;96083;-67
2022/03/31 00:06:12;;;;;;;5.85;1.63;;;18.90;77.30;;;;;;4958002;28;96062;-66
2022/03/31 00:08:42;;;;;;;5.00;1.73;;;19.00;77.30;;;;;;4958572;28;95747;-66
2022/03/31 00:11:14;;;;;;;6.15;1.52;;;19.10;77.10;;;;;;4944234;28;95598;-66
2022/03/31 00:13:45;;;;;;;11.85;2.28;;;19.10;77.20;;;;;;4954476;28;95930;-66
2022/03/31 00:16:17;;;;;;;4.75;1.90;;;19.20;77.00;;;;;;4953378;28;96709;-66
2022/03/31 00:18:47;;;;;;;10.48;1.63;;;19.20;76.70;;;;;;4955073;28;95877;-66
2022/03/31 00:21:16;;;;;;;7.18;1.73;;;19.30;76.70;;;;;;4955954;28;98360;-66
2022/03/31 00:23:48;;;;;;;5.32;1.58;;;19.30;76.60;;;;;;4951938;28;95353;-66
2022/03/31 00:26:20;;;;;;;5.00;1.55;;;19.40;76.40;;;;;;4958339;28;95392;-64
2022/03/31 00:28:50;;;;;;;3.30;1.55;;;19.40;76.40;;;;;;4959575;28;95727;-66
2022/03/31 00:31:22;;;;;;;4.47;1.08;;;19.50;76.30;;;;;;4946523;28;97982;-66
2022/03/31 00:33:52;;;;;;;7.07;1.40;;;19.60;76.20;;;;;;4957339;28;95587;-66
2022/03/31 00:36:24;;;;;;;5.45;1.92;;;19.60;76.20;;;;;;4956875;28;95690;-67
2022/03/31 00:41:45;;;;;;;3.05;1.20;;;19.60;75.90;;;;;;4950690;28;95836;-67
2022/03/31 00:44:16;;;;;;;4.85;1.60;;;19.60;76.10;;;;;;4953338;28;95763;-67
2022/03/31 00:46:52;;;;;;;4.20;1.63;;;19.70;76.00;;;;;;4960063;28;96245;-65
2022/03/31 00:49:24;;;;;;;8.38;1.60;;;19.70;66.50;;;;;;4955251;28;95795;-67
2022/03/31 00:51:55;;;;;;;2.78;1.05;;;19.70;76.10;;;;;;4965672;28;95920;-67
2022/03/31 00:54:28;;;;;;;7.75;1.63;;;19.70;76.00;;;;;;4961753;28;95902;-65
2022/03/31 00:56:59;;;;;;;6.25;1.58;;;19.70;75.80;;;;;;4952312;28;95703;-67
2022/03/31 00:59:30;;;;;;;4.05;1.80;;;19.70;75.90;;;;;;4949674;28;95914;-65
2022/03/31 01:02:02;;;;;;;;;;;19.70;75.80;;;;;;4949581;28;98681;-67
2022/03/31 01:04:34;;;;;;;7.68;1.77;;;19.70;75.80;;;;;;4956416;28;96150;-66
2022/03/31 01:07:05;;;;;;;6.00;1.80;;;19.70;75.60;;;;;;4958912;28;95325;-66
2022/03/31 01:09:36;;;;;;;6.57;1.85;;;19.70;75.60;;;;;;4962222;28;96091;-67
2022/03/31 01:12:07;;;;;;;5.43;1.90;;;19.80;75.60;;;;;;4935882;28;97031;-67
2022/03/31 01:14:38;;;;;;;6.85;1.80;;;19.80;75.50;;;;;;4951729;28;97278;-65
2022/03/31 01:17:09;;;;;;;6.90;1.85;;;19.80;75.50;;;;;;4957088;28;96058;-68
2022/03/31 01:19:40;;;;;;;;;;;19.80;75.60;;;;;;4960298;28;96096;-67
2022/03/31 01:22:11;;;;;;;4.30;1.13;;;19.80;75.10;;;;;;4958895;28;96450;-66
2022/03/31 01:24:41;;;;;;;3.40;1.50;;;19.90;75.40;;;;;;4955852;28;96124;-65
2022/03/31 01:27:11;;;;;;;5.15;2.13;;;19.90;75.30;;;;;;4959474;28;96237;-66
2022/03/31 01:29:41;;;;;;;5.22;1.83;;;19.90;75.20;;;;;;4951286;28;96121;-67
2022/03/31 01:32:13;;;;;;;6.97;2.00;;;19.90;75.20;;;;;;4949631;28;96432;-67
2022/03/31 01:34:45;;;;;;;4.90;1.98;;;19.90;75.10;;;;;;4959297;28;95843;-66
2022/03/31 01:37:20;;;;;;;5.20;1.73;;;20.00;66.40;;;;;;4962891;28;96441;-66
2022/03/31 01:39:51;;;;;;;2.70;1.30;;;20.10;75.10;;;;;;4966794;28;95651;-66
2022/03/31 01:42:22;;;;;;;6.45;1.65;;;20.10;74.70;;;;;;4957452;28;95818;-66
2022/03/31 01:44:53;;;;;;;;;;;20.20;74.40;;;;;;4963357;28;95803;-65
2022/03/31 01:47:24;;;;;;;4.05;1.45;;;20.30;74.20;;;;;;4950718;28;95368;-66
2022/03/31 01:49:56;;;;;;;6.10;1.40;;;20.20;73.80;;;;;;4962429;28;95509;-66
2022/03/31 01:52:27;;;;;;;;;;;20.30;73.80;;;;;;4964231;28;96482;-65
2022/03/31 01:54:58;;;;;;;7.85;1.83;;;20.30;73.70;;;;;;4967205;28;96299;-65
2022/03/31 01:57:28;;;;;;;7.82;1.85;;;20.30;73.50;;;;;;4953710;28;95357;-65
2022/03/31 02:00:02;;;;;;;5.13;1.70;;;20.30;73.40;;;;;;4959442;28;95850;-65
2022/03/31 02:02:43;;;;;;;6.57;1.92;;;20.30;73.20;;;;;;4946473;28;98464;-66
2022/03/31 02:05:14;;;;;;;4.20;1.67;;;20.30;73.20;;;;;;4951871;28;96016;-65
2022/03/31 02:07:45;;;;;;;4.47;2.05;;;20.30;72.80;;;;;;4951546;28;95922;-66
2022/03/31 02:10:16;;;;;;;5.32;1.70;;;20.30;73.20;;;;;;4957852;28;95963;-66
2022/03/31 02:12:50;;;;;;;7.22;1.58;;;20.30;73.10;;;;;;4955853;28;96843;-65
2022/03/31 02:15:22;;;;;;;3.13;1.50;;;20.30;73.10;;;;;;4944082;28;95727;-66
2022/03/31 02:17:54;;;;;;;3.97;1.45;;;20.30;73.10;;;;;;4959396;28;95210;-65
2022/03/31 02:20:27;;;;;;;6.88;2.03;;;20.30;73.00;;;;;;4955555;28;95384;-66
2022/03/31 02:23:00;;;;;;;3.10;1.15;;;20.30;73.00;;;;;;4960400;28;97920;-65
2022/03/31 02:25:31;;;;;;;5.10;1.90;;;20.30;73.00;;;;;;4949083;28;95765;-65
2022/03/31 02:28:03;;;;;;;;;;;20.30;73.00;;;;;;4948816;28;95815;-65
2022/03/31 02:30:37;;;;;;;6.72;1.90;;;20.30;73.10;;;;;;4973250;28;97709;-65
2022/03/31 02:33:10;;;;;;;3.05;1.10;;;20.40;73.40;;;;;;4954035;28;96075;-65
2022/03/31 02:35:40;;;;;;;9.40;2.10;;;20.40;73.10;;;;;;4953962;28;95775;-66
2022/03/31 02:38:12;;;;;;;6.43;1.95;;;20.40;73.20;;;;;;4963679;28;95868;-66
2022/03/31 02:40:43;;;;;;;4.80;1.90;;;20.50;73.50;;;;;;4953186;28;96061;-66
2022/03/31 02:43:15;;;;;;;4.47;1.70;;;20.50;73.70;;;;;;4963218;28;95848;-63
2022/03/31 02:45:46;;;;;;;5.35;1.80;;;20.60;73.90;;;;;;4949695;28;95913;-66
2022/03/31 02:48:17;;;;;;;3.92;1.67;;;20.60;74.00;;;;;;4953749;28;96786;-65
2022/03/31 02:50:48;;;;;;;6.82;1.63;;;20.60;74.10;;;;;;4957853;28;96209;-65
2022/03/31 02:56:10;;;;;;;4.57;1.60;;;20.50;73.30;;;;;;4960394;28;95929;-67
2022/03/31 02:58:41;;;;;;;4.57;1.83;;;20.50;73.70;;;;;;4966634;28;95725;-65
2022/03/31 03:01:11;;;;;;;;;;;20.50;74.10;;;;;;4949407;28;95894;-66
2022/03/31 03:03:42;;;;;;;6.85;2.00;;;20.40;74.00;;;;;;4964176;28;96533;-66
2022/03/31 03:06:13;;;;;;;;;;;20.50;74.20;;;;;;4950702;28;95800;-65
2022/03/31 03:08:45;;;;;;;4.78;1.42;;;20.40;74.30;;;;;;4951456;28;96250;-65
2022/03/31 03:11:17;;;;;;;6.78;1.17;;;20.50;74.30;;;;;;4948445;28;95762;-66
2022/03/31 03:13:48;;;;;;;5.97;1.60;;;20.40;74.20;;;;;;4950614;28;96969;-65
2022/03/31 03:16:20;;;;;;;1.80;1.10;;;20.50;74.30;;;;;;4947098;28;96944;-65
2022/03/31 03:18:52;;;;;;;5.07;1.90;;;20.50;74.20;;;;;;4954140;28;96044;-66
2022/03/31 03:21:26;;;;;;;2.92;1.38;;;20.50;74.10;;;;;;4950606;28;95774;-66
2022/03/31 03:23:57;;;;;;;3.50;1.48;;;20.50;74.20;;;;;;4961980;28;95924;-65
2022/03/31 03:26:27;;;;;;;3.67;1.80;;;20.60;74.20;;;;;;4956028;28;96661;-66
2022/03/31 03:28:58;;;;;;;4.03;1.88;;;20.60;74.10;;;;;;4953303;28;96254;-65
2022/03/31 03:31:29;;;;;;;4.78;2.00;;;20.60;64.60;;;;;;4950133;28;97272;-63
2022/03/31 03:34:00;;;;;;;4.93;1.85;;;20.50;74.10;;;;;;4951177;28;96509;-64
2022/03/31 03:36:31;;;;;;;6.32;2.03;;;20.50;74.30;;;;;;4950099;28;96099;-66
2022/03/31 03:39:03;;;;;;;10.30;2.20;;;20.50;74.60;;;;;;4948871;28;95803;-65
2022/03/31 03:41:33;;;;;;;6.35;2.13;;;20.50;70.60;;;;;;4948346;28;96108;-65
2022/03/31 03:44:05;;;;;;;8.45;1.80;;;20.30;71.70;;;;;;4954749;28;95851;-65
2022/03/31 03:46:39;;;;;;;11.05;2.40;;;20.40;72.10;;;;;;4952141;28;95902;-65
2022/03/31 03:49:11;;;;;;;4.57;2.13;;;20.60;72.20;;;;;;4949863;28;95975;-65
2022/03/31 03:51:44;;;;;;;3.92;1.90;;;20.60;68.80;;;;;;4953619;28;95696;-65
2022/03/31 03:54:16;;;;;;;6.80;2.03;;;20.70;69.20;;;;;;4958997;28;96133;-66
2022/03/31 03:56:47;;;;;;;8.43;2.40;;;20.70;70.50;;;;;;4952110;28;95995;-66
2022/03/31 03:59:17;;;;;;;5.00;1.92;;;20.80;68.70;;;;;;4965714;28;96121;-65
2022/03/31 04:01:47;;;;;;;6.60;1.88;;;20.90;71.00;;;;;;4943701;28;98165;-64
2022/03/31 04:04:20;;;;;;;;;;;20.70;68.90;;;;;;4957768;28;95893;-65
2022/03/31 04:06:53;;;;;;;4.47;1.63;;;21.30;71.70;;;;;;4961740;28;96079;-65
2022/03/31 04:09:25;;;;;;;7.50;1.75;;;21.80;70.40;;;;;;4976665;28;96037;-64
2022/03/31 04:11:56;;;;;;;2.28;1.45;;;22.10;69.80;;;;;;4948661;28;96179;-65
2022/03/31 04:14:26;;;;;;;2.95;1.55;;;22.30;69.30;;;;;;4952407;28;95861;-65
2022/03/31 04:16:57;;;;;;;3.38;1.77;;;22.20;68.20;;;;;;4943850;28;95734;-66
2022/03/31 04:19:29;;;;;;;5.88;1.85;;;22.10;67.60;;;;;;4953200;28;96096;-65
2022/03/31 04:21:59;;;;;;;4.22;1.80;;;22.20;64.10;;;;;;4952148;28;95781;-66
2022/03/31 04:24:29;;;;;;;6.40;2.00;;;22.20;64.20;;;;;;4946427;28;96627;-66
2022/03/31 04:27:02;;;;;;;5.38;1.70;;;22.10;62.80;;;;;;4957331;28;95580;-66
2022/03/31 04:29:34;;;;;;;4.68;1.80;;;22.10;64.10;;;;;;4951391;28;95714;-65
2022/03/31 04:32:05;;;;;;;;;;;21.90;64.80;;;;;;4949376;28;95897;-65
2022/03/31 04:34:36;;;;;;;4.65;1.45;;;21.80;64.00;;;;;;4950975;28;96187;-66
2022/03/31 04:37:07;;;;;;;6.60;1.83;;;21.60;64.10;;;;;;4954055;28;96901;-66
2022/03/31 04:39:38;;;;;;;5.97;1.90;;;21.30;64.30;;;;;;4945760;28;96231;-65
2022/03/31 04:42:10;;;;;;;6.43;1.83;;;21.20;63.80;;;;;;4956432;28;95661;-65
2022/03/31 04:44:41;;;;;;;6.97;1.45;;;21.20;63.00;;;;;;4958861;28;96416;-66
2022/03/31 04:47:12;;;;;;;;;;;21.10;63.50;;;;;;4947257;28;96361;-66
2022/03/31 04:49:42;;;;;;;9.45;2.28;;;21.00;65.20;;;;;;4955595;28;96189;-65
2022/03/31 04:52:12;;;;;;;7.47;1.40;;;20.90;63.30;;;;;;4970789;28;95628;-66
2022/03/31 04:54:46;;;;;;;8.27;1.83;;;20.90;64.10;;;;;;4970568;28;98502;-66
2022/03/31 04:57:18;;;;;;;6.25;1.60;;;20.60;66.00;;;;;;4964146;28;96071;-66
2022/03/31 04:59:49;;;;;;;4.95;1.35;;;20.70;65.60;;;;;;4963952;28;96701;-66
2022/03/31 05:02:22;;;;;;;7.82;1.55;;;20.90;64.10;;;;;;4970489;28;98477;-67
2022/03/31 05:04:53;;;;;;;5.25;1.95;;;21.00;64.30;;;;;;4972520;28;96014;-67
2022/03/31 05:07:23;;;;;;;5.53;1.87;;;20.90;62.90;;;;;;4953745;28;97249;-66
2022/03/31 05:09:53;;;;;;;9.90;2.20;;;20.90;65.50;;;;;;4956818;28;95836;-67
2022/03/31 05:12:24;;;;;;;6.07;1.38;;;20.50;59.20;;;;;;4952002;28;95865;-66
2022/03/31 05:14:55;;;;;;;4.30;1.40;;;20.20;59.70;;;;;;4955146;28;95921;-70
2022/03/31 05:17:31;;;;;;;6.38;1.42;;;20.00;61.20;;;;;;4949491;28;97706;-65
2022/03/31 05:20:08;;;;;;;2.67;1.15;;;20.00;65.10;;;;;;4964339;28;95702;-67
2022/03/31 05:22:39;;;;;;;4.95;1.38;;;20.20;63.70;;;;;;4957488;28;95769;-67
2022/03/31 05:25:12;;;;;;;4.03;1.73;;;20.40;63.50;;;;;;4956161;28;95892;-66
2022/03/31 05:27:47;;;;;;;8.43;1.88;;;20.60;63.90;;;;;;4953537;28;98474;-67
2022/03/31 05:30:20;;;;;;;7.68;1.77;;;20.60;66.40;;;;;;4951667;28;96103;-64
2022/03/31 05:32:54;;;;;;;6.00;1.65;;;20.40;65.20;;;;;;4961103;28;95928;-66
2022/03/31 05:35:27;;;;;;;4.50;1.40;;;20.20;62.40;;;;;;4959679;28;96005;-65
2022/03/31 05:37:58;;;;;;;7.30;1.50;;;20.00;63.60;;;;;;4949064;28;96051;-66
2022/03/31 05:40:32;;;;;;;2.28;1.40;;;20.10;62.20;;;;;;4967199;28;95295;-65
2022/03/31 05:43:03;;;;;;;;;;;20.10;63.10;;;;;;4963891;28;95724;-66
2022/03/31 05:45:36;;;;;;;2.53;1.00;;;20.30;62.30;;;;;;4949833;28;98206;-65
2022/03/31 05:48:08;;;;;;;;;;;20.40;63.10;;;;;;4950579;28;95981;-65
2022/03/31 05:50:45;;;;;;;4.95;1.30;;;20.50;61.80;;;;;;4958789;28;96109;-66
2022/03/31 05:53:16;;;;;;;3.17;1.35;;;20.80;63.70;;;;;;4968007;28;95905;-65
2022/03/31 05:55:47;;;;;;;4.80;1.20;;;20.90;61.70;;;;;;4959123;28;95881;-64
2022/03/31 05:58:17;;;;;;;3.57;1.50;;;20.80;62.20;;;;;;4961947;28;96108;-67
2022/03/31 06:00:47;;;;;;;4.70;1.27;;;20.90;60.20;;;;;;4946351;28;97999;-65
2022/03/31 06:03:21;;;;;;;4.93;1.35;;;21.00;61.20;;;;;;4959510;28;95787;-65
2022/03/31 06:05:52;;;;;;;3.00;1.10;;;21.00;60.20;;;;;;4958725;28;99323;-64
2022/03/31 06:08:27;;;;;;;3.85;1.33;;;20.90;61.40;;;;;;4958803;28;96120;-64
2022/03/31 06:10:58;;;;;;;3.05;0.88;;;20.90;62.60;;;;;;4958143;28;95676;-64
2022/03/31 06:13:33;;;;;;;4.53;1.92;;;21.10;61.60;;;;;;4954996;28;96423;-64
2022/03/31 06:16:05;;;;;;;5.43;1.15;;;21.10;59.10;;;;;;4965466;28;97603;-65
2022/03/31 06:18:36;;;;;;;4.35;1.27;;;21.00;59.50;;;;;;4955571;28;95910;-64
2022/03/31 06:21:06;;;;;;;11.88;1.42;;;20.90;61.70;;;;;;4950336;28;96009;-66
2022/03/31 06:23:38;;;;;;;4.32;1.55;;;20.90;59.40;;;;;;4942095;28;96298;-66
2022/03/31 06:26:09;;;;;;;4.55;1.73;;;20.40;59.20;;;;;;4955979;28;96752;-66
2022/03/31 06:28:39;;;;;;;4.15;1.45;;;20.00;58.30;;;;;;4957598;28;95669;-66
2022/03/31 06:31:09;;;;;;;5.45;1.35;;;19.80;62.20;;;;;;4943185;28;95973;-65
2022/03/31 06:33:41;;;;;;;3.60;1.23;;;19.50;60.30;;;;;;4955162;28;95706;-65
2022/03/31 06:36:13;;;;;;;6.78;1.10;;;19.30;62.70;;;;;;4959186;28;96792;-65
2022/03/31 06:38:46;;;;;;;3.05;1.17;;;19.20;62.60;;;;;;4964918;28;95898;-65
2022/03/31 06:41:18;;;;;;;5.72;1.60;;;19.30;62.70;;;;;;4956673;28;95690;-65
2022/03/31 06:43:49;;;;;;;;;;;19.50;63.80;;;;;;4952230;28;95593;-66
2022/03/31 06:46:20;;;;;;;3.30;1.13;;;19.40;60.70;;;;;;4949134;28;96744;-65
2022/03/31 06:48:51;;;;;;;;;;;19.60;64.30;;;;;;4952163;28;95734;-65
2022/03/31 06:51:22;;;;;;;13.35;1.90;;;19.60;62.10;;;;;;4956610;28;97792;-66
2022/03/31 06:53:58;;;;;;;6.05;1.75;;;19.60;62.90;;;;;;4952557;28;95377;-65
2022/03/31 06:56:31;;;;;;;4.47;1.17;;;19.40;63.90;;;;;;4961335;28;95878;-66
2022/03/31 06:59:02;;;;;;;8.18;1.73;;;19.20;62.30;;;;;;4947650;28;96178;-66
2022/03/31 07:01:32;;;;;;;5.22;1.23;;;19.00;54.70;;;;;;4946516;28;96037;-65
2022/03/31 07:04:06;;;;;;;6.93;1.75;;;18.90;61.30;;;;;;4960207;28;95199;-65
2022/03/31 07:06:37;;;;;;;3.47;1.05;;;19.00;62.20;;;;;;4958978;28;96453;-66
2022/03/31 07:09:07;;;;;;;7.95;1.40;;;18.80;60.40;;;;;;4944701;28;95908;-66
2022/03/31 07:11:41;;;;;;;7.18;1.67;;;18.90;62.00;;;;;;4957496;28;95785;-65
2022/03/31 07:14:12;;;;;;;4.20;1.15;;;18.80;61.60;;;;;;4953119;28;95747;-66
2022/03/31 07:16:45;;;;;;;7.47;1.77;;;18.60;61.80;;;;;;4948539;28;96492;-65
2022/03/31 07:19:16;;;;;;;6.90;1.33;;;18.50;62.80;;;;;;4954746;28;95906;-67
2022/03/31 07:21:47;;;;;;;7.97;1.80;;;18.30;62.70;;;;;;4946497;28;95690;-67
2022/03/31 07:24:17;;;;;;;7.95;1.48;;;18.40;62.30;;;;;;4951168;28;96182;-66
2022/03/31 07:26:47;;;;;;;5.03;1.40;;;18.50;63.70;;;;;;4950901;28;96900;-66
2022/03/31 07:29:18;;;;;;;2.75;0.95;;;18.50;60.30;;;;;;4955367;28;95884;-63
2022/03/31 07:31:49;;;;;;;;;;;18.40;60.00;;;;;;4949438;28;96052;-66
2022/03/31 07:34:21;;;;;;;6.22;1.42;;;18.30;60.10;;;;;;4960767;28;95799;-65
2022/03/31 07:36:53;;;;;;;5.88;1.35;;;18.20;61.30;;;;;;4955082;28;96013;-65
2022/03/31 07:39:24;;;;;;;5.47;1.42;;;18.00;60.50;;;;;;4960113;28;97468;-65
2022/03/31 07:41:56;;;;;;;10.02;1.85;;;17.70;63.60;;;;;;4953933;28;95605;-65
2022/03/31 07:44:27;;;;;;;5.53;1.48;;;17.50;63.20;;;;;;4949316;28;96197;-65
2022/03/31 07:46:58;;;;;;;3.17;1.20;;;17.30;63.20;;;;;;4949994;28;96605;-65
2022/03/31 07:49:29;;;;;;;;;;;17.30;64.00;;;;;;4932143;28;98045;-65
2022/03/31 07:52:03;;;;;;;8.85;2.50;;;17.40;65.10;;;;;;4950783;28;95707;-66
2022/03/31 07:54:57;;;;;;;7.97;1.63;;;17.30;64.70;;;;;;4956097;28;95537;-65
2022/03/31 07:57:29;;;;;;;5.75;1.50;;;17.10;65.90;;;;;;4959768;28;97313;-66
2022/03/31 08:00:00;;;;;;;5.38;1.27;;;16.80;66.70;;;;;;4954494;28;95533;-65
2022/03/31 08:02:42;;;;;;;6.10;1.30;;;16.70;67.60;;;;;;4952099;28;96292;-64
2022/03/31 08:05:19;;;;;;;7.07;1.65;;;16.60;67.40;;;;;;4959839;28;96158;-65
2022/03/31 08:07:50;;;;;;;6.22;1.40;;;16.50;67.00;;;;;;4960309;28;95905;-66
2022/03/31 08:10:22;;;;;;;4.97;1.52;;;16.40;67.70;;;;;;4965022;28;95750;-65
2022/03/31 08:12:54;;;;;;;5.43;1.40;;;16.50;67.20;;;;;;4965779;28;95869;-65
2022/03/31 08:15:25;;;;;;;4.35;1.00;;;16.40;67.80;;;;;;4951367;28;95664;-66
2022/03/31 08:17:58;;;;;;;3.28;1.50;;;16.20;69.00;;;;;;4967838;28;96675;-65
2022/03/31 08:20:29;;;;;;;3.75;1.45;;;16.30;67.50;;;;;;4951668;28;95949;-65
2022/03/31 08:23:00;;;;;;;7.63;1.95;;;16.40;67.10;;;;;;4955698;28;96430;-63
2022/03/31 08:25:30;;;;;;;6.72;1.45;;;16.40;67.00;;;;;;4948581;28;95874;-65
2022/03/31 08:28:00;;;;;;;5.20;1.20;;;16.10;67.20;;;;;;4960254;28;96565;-65
2022/03/31 08:30:34;;;;;;;3.40;1.58;;;16.00;67.80;;;;;;4948481;28;97056;-65
2022/03/31 08:33:04;;;;;;;7.30;1.50;;;16.10;66.80;;;;;;4956553;28;95845;-65
2022/03/31 08:35:38;;;;;;;5.70;1.33;;;16.10;68.20;;;;;;4959776;28;95815;-65
2022/03/31 08:38:09;;;;;;;10.97;1.63;;;16.00;68.10;;;;;;4951232;28;96470;-65
2022/03/31 08:40:45;;;;;;;3.25;1.10;;;15.90;67.20;;;;;;4957674;28;96040;-65
2022/03/31 08:43:16;;;;;;;4.32;1.48;;;15.90;68.10;;;;;;4952188;28;98128;-65
2022/03/31 08:45:55;;;;;;;4.85;1.40;;;16.00;68.70;;;;;;4944203;28;95775;-66
2022/03/31 08:48:26;;;;;;;4.63;1.17;;;16.00;67.60;;;;;;4942256;28;96097;-66
2022/03/31 08:50:58;;;;;;;6.65;1.50;;;15.70;70.10;;;;;;4953278;28;102917;-66
2022/03/31 08:53:29;;;;;;;12.13;2.25;;;15.50;69.80;;;;;;4951570;28;96293;-66
2022/03/31 08:56:01;;;;;;;10.65;1.52;;;15.40;71.00;;;;;;4948535;28;95699;-66
2022/03/31 08:58:32;;;;;;;6.20;1.92;;;15.20;72.00;;;;;;4953278;28;97481;-66
2022/03/31 09:01:04;;;;;;;6.07;2.33;;;15.10;71.90;;;;;;4953694;28;95773;-66
2022/03/31 09:03:38;;;;;;;;;;;15.10;63.50;;;;;;4958018;28;95299;-66
2022/03/31 09:06:21;;;;;;;4.93;1.40;;;15.20;72.20;;;;;;4960637;28;95671;-66
2022/03/31 09:09:04;;;;;;;6.18;1.40;;;15.30;71.30;;;;;;4959508;28;96033;-66
2022/03/31 09:11:37;;;;;;;3.95;1.00;;;15.20;70.60;;;;;;4957128;28;98506;-66
2022/03/31 09:14:32;;;;;;;2.45;0.95;;;15.20;71.50;;;;;;4964751;28;95808;-66
2022/03/31 09:17:14;;;;;;;5.15;1.88;;;15.30;70.20;;;;;;4954198;28;95549;-67
2022/03/31 09:19:46;;;;;;;5.50;1.42;;;15.50;70.20;;;;;;4949501;28;96435;-66
2022/03/31 09:22:16;;;;;;;5.55;1.88;;;15.60;68.90;;;;;;4947224;28;96087;-66
2022/03/31 09:24:47;;;;;;;7.93;1.42;;;15.50;68.10;;;;;;4948831;28;95857;-66
2022/03/31 09:27:26;;;;;;;2.30;1.38;;;15.60;67.90;;;;;;4958741;28;97294;-67
2022/03/31 09:30:05;;;;;;;4.05;1.20;;;15.70;69.90;;;;;;4958589;28;96001;-65
2022/03/31 09:32:46;;;;;;;7.35;1.25;;;15.90;68.90;;;;;;4963241;28;96133;-66
2022/03/31 09:35:24;;;;;;;3.90;1.38;;;16.10;65.90;;;;;;4964493;28;95604;-65
2022/03/31 09:37:55;;;;;;;3.35;1.38;;;16.10;66.30;;;;;;4991732;28;95937;-66
2022/03/31 09:40:36;;;;;;;3.90;1.42;;;16.30;65.60;;;;;;4956644;28;95936;-66
2022/03/31 09:43:06;;;;;;;3.67;1.40;;;16.30;64.90;;;;;;4957809;28;95986;-66
2022/03/31 09:45:41;;;;;;;5.72;1.58;;;16.50;66.00;;;;;;4947199;28;95943;-66
2022/03/31 09:48:22;;;;;;;9.23;1.25;;;16.40;65.30;;;;;;4956225;28;96060;-65
2022/03/31 09:50:57;;;;;;;13.35;1.70;;;16.10;65.90;;;;;;4950933;28;96592;-65
2022/03/31 09:53:32;;;;;;;11.27;1.80;;;16.00;66.50;;;;;;4951624;28;95879;-65
2022/03/31 09:56:04;;;;;;;10.85;2.00;;;15.90;68.40;;;;;;4967422;28;95903;-65
2022/03/31 09:58:39;;;;;;;5.93;1.40;;;16.00;67.80;;;;;;4963234;28;95558;-65
2022/03/31 10:01:12;;;;;;;6.70;1.60;;;15.90;68.00;;;;;;4954061;28;95905;-67
2022/03/31 10:03:44;;;;;;;;;;;16.00;67.90;;;;;;4992736;28;96828;-66
2022/03/31 10:06:16;;;;;;;6.15;1.58;;;15.90;68.40;;;;;;4956293;28;95604;-65
2022/03/31 10:08:47;;;;;;;4.05;1.45;;;16.00;67.30;;;;;;4963669;28;96169;-65
2022/03/31 10:11:23;;;;;;;5.28;1.65;;;16.00;67.80;;;;;;4960108;28;95823;-65
2022/03/31 10:14:17;;;;;;;5.18;1.50;;;16.00;69.60;;;;;;4961357;28;96219;-66
2022/03/31 10:16:58;;;;;;;9.68;1.88;;;16.00;68.40;;;;;;4950527;28;95536;-65
2022/03/31 10:19:38;;;;;;;4.32;1.27;;;16.00;68.00;;;;;;4952572;28;95734;-66
2022/03/31 10:25:07;;;;;;;8.10;1.90;;;16.20;67.90;;;;;;4963872;28;96072;-66
2022/03/31 10:27:50;;;;;;;8.73;1.77;;;16.10;69.00;;;;;;4953028;28;95933;-65
2022/03/31 10:30:26;;;;;;;7.18;1.63;;;16.00;69.30;;;;;;4948697;28;96128;-65
2022/03/31 10:33:11;;;;;;;6.18;2.80;;;15.90;68.90;;;;;;4963837;28;103169;-66
2022/03/31 10:35:46;;;;;;;7.32;1.70;;;15.80;68.40;;;;;;4964347;28;96252;-66
2022/03/31 10:38:18;;;;;;;6.47;1.70;;;15.80;68.90;;;;;;4962660;28;95717;-65
2022/03/31 10:41:00;;;;;;;3.97;1.70;;;15.60;68.90;;;;;;4960227;28;95298;-65
2022/03/31 10:43:47;;;;;;;7.03;1.63;;;15.50;70.40;;;;;;4958718;28;96466;-65
2022/03/31 10:46:20;;;;;;;6.90;1.40;;;15.30;71.60;;;;;;4957117;28;95767;-65
2022/03/31 10:48:53;;;;;;;9.05;2.60;;;15.50;71.30;;;;;;4950923;28;97506;-65
2022/03/31 10:51:34;;;;;;;6.38;1.70;;;15.40;70.10;;;;;;4960879;28;95786;-66
2022/03/31 10:54:09;;;;;;;5.35;1.98;;;15.30;71.00;;;;;;4991912;28;98631;-66
2022/03/31 10:56:41;;;;;;;5.78;1.83;;;15.20;70.90;;;;;;4962728;28;95878;-65
2022/03/31 10:59:15;;;;;;;7.82;1.35;;;15.10;71.60;;;;;;4956689;28;96173;-65
2022/03/31 11:01:50;;;;;;;7.60;1.70;;;15.10;71.70;;;;;;4952510;28;95491;-65
2022/03/31 11:04:21;;;;;;;11.10;1.92;;;15.00;72.20;;;;;;4961176;28;95895;-66
2022/03/31 11:06:55;;;;;;;5.30;1.38;;;14.80;73.30;;;;;;4954882;28;96124;-66
2022/03/31 11:09:31;;;;;;;8.20;1.75;;;14.70;73.40;;;;;;4949887;28;95974;-65
2022/03/31 11:12:01;;;;;;;6.85;2.13;;;14.60;74.20;;;;;;4951466;28;95676;-65
2022/03/31 11:14:31;;;;;;;8.40;1.50;;;14.70;74.10;;;;;;4953302;28;96437;-65
2022/03/31 11:17:04;;;;;;;9.75;1.70;;;14.70;74.40;;;;;;4952880;28;96999;-65
2022/03/31 11:19:37;;;;;;;9.98;1.85;;;14.70;66.30;;;;;;4950572;28;95777;-65
2022/03/31 11:22:07;;;;;;;6.82;2.10;;;14.50;74.10;;;;;;4958209;28;96288;-65
2022/03/31 11:24:38;;;;;;;5.05;1.60;;;14.40;75.00;;;;;;4968221;28;95922;-64
2022/03/31 11:27:08;;;;;;;6.35;1.52;;;14.40;75.50;;;;;;4959634;28;95775;-65
2022/03/31 11:29:38;;;;;;;6.55;1.63;;;14.30;75.30;;;;;;4961622;28;95158;-66
2022/03/31 11:32:11;;;;;;;5.50;1.98;;;14.30;75.70;;;;;;4955863;28;95866;-66
2022/03/31 11:34:52;;;;;;;8.50;2.10;;;14.30;75.80;;;;;;4958051;28;95828;-65
2022/03/31 11:37:23;;;;;;;7.68;2.65;;;14.30;75.90;;;;;;4960754;28;95776;-65
2022/03/31 11:39:57;;;;;;;8.32;1.90;;;14.30;76.40;;;;;;4964093;28;95427;-66
2022/03/31 11:42:31;;;;;;;7.18;1.85;;;14.20;76.20;;;;;;4959826;28;95972;-66
2022/03/31 11:45:02;;;;;;;9.23;1.90;;;14.20;76.20;;;;;;4956245;28;95822;-65
2022/03/31 11:47:35;;;;;;;9.35;1.98;;;14.20;77.10;;;;;;4953600;28;97246;-66
2022/03/31 11:50:07;;;;;;;8.93;1.90;;;14.20;76.70;;;;;;4952434;28;95368;-65
2022/03/31 11:52:38;;;;;;;8.45;2.00;;;14.20;76.80;;;;;;4954684;28;95733;-65
2022/03/31 11:55:13;;;;;;;;;;;14.10;76.70;;;;;;4953895;28;96302;-64
2022/03/31 11:57:58;;;;;;;12.15;2.42;;;14.10;77.30;;;;;;4960358;28;95788;-65
2022/03/31 12:00:31;;;;;;;8.82;2.17;;;14.00;77.50;;;;;;4947534;28;95707;-65
2022/03/31 12:03:09;;;;;;;9.73;2.15;;;13.90;77.70;;;;;;4953714;28;95975;-66
2022/03/31 12:05:57;;;;;;;;;;;13.90;78.00;;;;;;4960215;28;96347;-66
2022/03/31 12:08:30;;;;;;;8.57;1.80;;;14.00;77.70;;;;;;4956028;28;95969;-65
2022/03/31 12:11:01;;;;;;;5.55;1.70;;;13.90;77.40;;;;;;4951715;28;95629;-65
2022/03/31 12:13:32;;;;;;;3.47;1.40;;;13.90;77.90;;;;;;4954246;28;96008;-65
2022/03/31 12:16:09;;;;;;;7.75;1.80;;;14.00;77.70;;;;;;4956671;28;96063;-66
2022/03/31 12:18:44;;;;;;;4.55;1.50;;;14.20;76.60;;;;;;4954421;28;98049;-67
2022/03/31 12:21:16;;;;;;;5.20;1.52;;;14.40;77.80;;;;;;4970248;28;95304;-66
2022/03/31 12:23:47;;;;;;;5.97;1.55;;;15.00;77.00;;;;;;4966791;28;95749;-66
2022/03/31 12:26:37;;;;;;;6.40;2.05;;;15.30;77.10;;;;;;4961207;28;95908;-65
2022/03/31 12:29:17;;;;;;;6.22;1.40;;;15.70;76.60;;;;;;4965246;28;95901;-65
2022/03/31 12:31:48;;;;;;;2.72;1.00;;;15.90;75.80;;;;;;4957931;28;95670;-65
2022/03/31 12:34:20;;;;;;;1.92;1.25;;;16.00;65.30;;;;;;4965040;28;96386;-64
2022/03/31 12:36:51;;;;;;;;;;;16.10;75.00;;;;;;4967399;28;95918;-65
2022/03/31 12:39:22;;;;;;;3.50;1.37;;;16.20;75.30;;;;;;4968570;28;96013;-64
2022/03/31 12:41:55;;;;;;;4.75;1.40;;;16.30;74.20;;;;;;4965234;28;96002;-64
2022/03/31 12:44:31;;;;;;;2.22;0.90;;;16.40;74.50;;;;;;4960110;28;96600;-64
2022/03/31 12:47:03;;;;;;;2.22;0.80;;;16.50;73.50;;;;;;4957614;28;96887;-65
2022/03/31 12:49:35;;;;;;;4.20;0.93;;;16.60;73.60;;;;;;4959194;28;97429;-66
2022/03/31 12:52:12;;;;;;;3.38;1.13;;;16.70;73.20;;;;;;4970568;28;95744;-67
2022/03/31 12:54:56;;;;;;;1.33;1.08;;;16.80;73.60;;;;;;4967450;28;96009;-67
2022/03/31 12:57:28;;;;;;;2.70;0.85;;;16.90;73.60;;;;;;4967041;28;95962;-66
2022/03/31 13:00:13;;;;;;;4.18;1.08;;;17.00;73.50;;;;;;4959715;28;96311;-66
2022/03/31 13:02:47;;;;;;;2.00;0.93;;;17.30;72.50;;;;;;4946146;28;96133;-66
2022/03/31 13:05:23;;;;;;;4.78;0.68;;;17.60;71.80;;;;;;4969174;28;95778;-65
2022/03/31 13:07:56;;;;;;;1.35;0.70;;;18.00;61.00;;;;;;4966325;28;97845;-65
2022/03/31 13:10:27;;;;;;;1.48;0.70;;;18.20;69.80;;;;;;4966847;28;95743;-66
2022/03/31 13:12:57;;;;;;;;;;;18.40;69.20;;;;;;4984680;28;96194;-66
2022/03/31 13:15:30;;;;;;;0.80;0.75;;;18.60;68.80;;;;;;4959798;28;95370;-65
2022/03/31 13:18:03;;;;;;;0.82;0.63;;;18.80;68.20;;;;;;4964027;28;96544;-66
2022/03/31 13:20:34;;;;;;;1.15;0.75;;;19.00;67.80;;;;;;4967946;28;95526;-64
2022/03/31 13:23:05;;;;;;;1.75;0.70;;;19.10;67.50;;;;;;4968034;28;95534;-65
2022/03/31 13:25:35;;;;;;;0.98;0.77;;;19.20;67.20;;;;;;4968122;28;95716;-65
2022/03/31 13:28:05;;;;;;;3.10;0.85;;;19.30;67.00;;;;;;4967691;28;95789;-65
2022/03/31 13:30:36;;;;;;;1.87;0.70;;;19.40;66.90;;;;;;4959946;28;95900;-65